Time;durP1;ratioP1;P1;durP2;ratioP2;P2;SDS_P1;SDS_P2;PMS_P1;PMS_P2;Temp;Humidity;BMP_temperature;BMP_pressure;BME280_temperature;BME280_humidity;BME280_pressure;Samples;Min_cycle;Max_cycle;Signal;HPM_P1;HPM_P2
2023/11/17 00:01:59;;;;;;;0.60;0.60;;;1.50;99.90;;;;;;5022233;28;20386;-82
2023/11/17 00:04:24;;;;;;;0.70;0.70;;;1.50;99.90;;;;;;5030829;28;20048;-83
2023/11/17 00:06:50;;;;;;;0.77;0.77;;;1.40;99.90;;;;;;5042118;28;20036;-82
2023/11/17 00:09:17;;;;;;;1.05;1.05;;;1.50;99.90;;;;;;5052584;28;20089;-85
2023/11/17 00:11:46;;;;;;;0.60;0.60;;;1.60;99.90;;;;;;5037699;28;20048;-84
2023/11/17 00:14:11;;;;;;;0.68;0.68;;;1.60;99.90;;;;;;5042552;28;20037;-85
2023/11/17 00:16:37;;;;;;;0.60;0.60;;;1.60;99.90;;;;;;5031913;28;20045;-83
2023/11/17 00:19:06;;;;;;;0.70;0.70;;;1.60;99.90;;;;;;5039563;28;20048;-85
2023/11/17 00:21:34;;;;;;;0.70;0.70;;;1.50;99.90;;;;;;5034060;28;20040;-83
2023/11/17 00:24:00;;;;;;;0.70;0.70;;;1.40;99.90;;;;;;5046061;28;20053;-82
2023/11/17 00:26:26;;;;;;;;;;;1.40;99.90;;;;;;5024333;28;20483;-84
2023/11/17 00:28:53;;;;;;;0.60;0.60;;;1.30;99.90;;;;;;5025687;28;19930;-85
2023/11/17 00:31:19;;;;;;;0.70;0.70;;;1.20;99.90;;;;;;5030372;28;20052;-85
2023/11/17 00:33:44;;;;;;;0.70;0.70;;;1.10;99.90;;;;;;5041917;28;20040;-86
2023/11/17 00:36:10;;;;;;;0.70;0.70;;;1.20;99.90;;;;;;5051206;28;20159;-83
2023/11/17 00:38:36;;;;;;;0.80;0.80;;;1.20;99.90;;;;;;5032580;28;20047;-83
2023/11/17 00:41:04;;;;;;;1.00;1.00;;;1.70;99.90;;;;;;5044804;28;20048;-84
2023/11/17 00:43:31;;;;;;;0.70;0.70;;;1.40;99.90;;;;;;5037148;28;20374;-84
2023/11/17 00:45:58;;;;;;;0.63;0.63;;;1.50;99.90;;;;;;5016980;28;20108;-84
2023/11/17 00:48:28;;;;;;;1.33;1.33;;;1.60;99.90;;;;;;5028716;28;20371;-84
2023/11/17 00:50:59;;;;;;;0.77;0.77;;;2.50;99.90;;;;;;5015842;28;20042;-82
2023/11/17 00:53:29;;;;;;;0.70;0.70;;;1.70;99.90;;;;;;5022535;28;20499;-84
2023/11/17 00:56:04;;;;;;;1.25;1.25;;;2.20;99.90;;;;;;5002589;28;20029;-85
2023/11/17 00:58:30;;;;;;;2.88;2.03;;;1.60;99.90;;;;;;5031098;28;20047;-84
2023/11/17 01:00:56;;;;;;;;;;;1.60;99.90;;;;;;5018597;28;20425;-83
2023/11/17 01:03:23;;;;;;;0.60;0.60;;;1.60;99.90;;;;;;5028912;28;19920;-83
2023/11/17 01:05:48;;;;;;;0.60;0.60;;;1.60;99.90;;;;;;5024694;28;20033;-85
2023/11/17 01:08:14;;;;;;;0.73;0.73;;;1.60;99.90;;;;;;5040748;28;20103;-84
2023/11/17 01:10:40;;;;;;;0.70;0.70;;;1.50;99.90;;;;;;5022993;28;20466;-83
2023/11/17 01:13:07;;;;;;;0.80;0.80;;;1.40;99.90;;;;;;5042694;28;20053;-84
2023/11/17 01:15:34;;;;;;;0.65;0.65;;;1.40;99.90;;;;;;5045261;28;20040;-85
2023/11/17 01:18:03;;;;;;;0.60;0.60;;;1.40;99.90;;;;;;5014496;28;20088;-87
2023/11/17 01:20:30;;;;;;;0.70;0.70;;;1.40;99.90;;;;;;5050284;28;20057;-86
2023/11/17 01:22:56;;;;;;;0.80;0.80;;;1.40;99.90;;;;;;5019274;28;20056;-84
2023/11/17 01:25:21;;;;;;;0.73;0.73;;;1.50;99.90;;;;;;5042771;28;20036;-84
2023/11/17 01:27:47;;;;;;;0.68;0.68;;;1.50;99.90;;;;;;5019081;28;20041;-86
2023/11/17 01:30:14;;;;;;;0.60;0.60;;;1.50;99.90;;;;;;5029092;28;20470;-85
2023/11/17 01:32:40;;;;;;;0.57;0.57;;;1.60;99.90;;;;;;5044622;28;20091;-86
2023/11/17 01:35:14;;;;;;;0.80;0.80;;;2.30;99.90;;;;;;5032055;28;21345;-86
2023/11/17 01:37:40;;;;;;;1.05;1.05;;;1.60;99.90;;;;;;5014811;28;20033;-84
2023/11/17 01:40:06;;;;;;;0.70;0.70;;;1.80;99.90;;;;;;5043377;28;20091;-82
2023/11/17 01:42:37;;;;;;;0.70;0.70;;;1.80;99.90;;;;;;5044875;28;20042;-81
2023/11/17 01:45:07;;;;;;;0.60;0.60;;;1.80;99.90;;;;;;5048604;28;20130;-83
2023/11/17 01:47:41;;;;;;;0.50;0.50;;;1.80;99.90;;;;;;5039614;28;20391;-82
2023/11/17 01:50:11;;;;;;;0.82;0.82;;;1.90;99.90;;;;;;5026749;28;20084;-84
2023/11/17 01:52:40;;;;;;;0.60;0.60;;;2.10;99.90;;;;;;5044693;28;20040;-85
2023/11/17 01:55:07;;;;;;;1.00;1.00;;;2.10;99.90;;;;;;5029401;28;20456;-84
2023/11/17 01:57:40;;;;;;;1.48;1.48;;;1.70;99.90;;;;;;5027151;28;20482;-85
2023/11/17 02:00:13;;;;;;;0.70;0.70;;;1.80;99.90;;;;;;5043522;28;20072;-83
2023/11/17 02:02:48;;;;;;;0.60;0.60;;;1.60;99.90;;;;;;5019276;28;20140;-86
2023/11/17 02:05:17;;;;;;;0.70;0.70;;;1.60;99.90;;;;;;5041492;28;20553;-82
2023/11/17 02:07:56;;;;;;;0.65;0.65;;;1.60;99.90;;;;;;5043077;28;20028;-83
2023/11/17 02:10:55;;;;;;;0.80;0.80;;;1.80;99.90;;;;;;5029087;28;20037;-85
2023/11/17 02:13:25;;;;;;;0.70;0.70;;;1.70;99.90;;;;;;5032422;28;20047;-85
2023/11/17 02:15:56;;;;;;;0.80;0.80;;;1.70;99.90;;;;;;5053025;28;20073;-87
2023/11/17 02:18:23;;;;;;;0.68;0.68;;;1.70;99.90;;;;;;5014382;28;20163;-83
2023/11/17 02:20:52;;;;;;;0.65;0.65;;;1.70;99.90;;;;;;5047622;28;20043;-85
2023/11/17 02:23:19;;;;;;;0.55;0.55;;;1.70;99.90;;;;;;5048424;28;20120;-86
2023/11/17 02:26:15;;;;;;;0.60;0.60;;;1.80;99.90;;;;;;5055604;28;20071;-85
2023/11/17 02:28:50;;;;;;;0.70;0.70;;;1.80;99.90;;;;;;5030640;28;20033;-84
2023/11/17 02:31:18;;;;;;;0.63;0.63;;;1.90;99.90;;;;;;5033383;28;20491;-83
2023/11/17 02:33:51;;;;;;;0.60;0.60;;;2.00;99.90;;;;;;5025553;28;20034;-84
2023/11/17 02:36:19;;;;;;;0.73;0.73;;;1.90;99.90;;;;;;5034362;28;20048;-81
2023/11/17 02:38:56;;;;;;;0.70;0.70;;;2.00;99.90;;;;;;5031327;28;20087;-84
2023/11/17 02:41:37;;;;;;;0.60;0.60;;;2.00;99.90;;;;;;5042185;28;20116;-87
2023/11/17 02:44:03;;;;;;;0.65;0.65;;;2.00;99.90;;;;;;5032864;28;20440;-84
2023/11/17 02:46:34;;;;;;;0.80;0.80;;;2.00;99.90;;;;;;5026434;28;20041;-85
2023/11/17 02:49:04;;;;;;;0.52;0.52;;;2.10;99.90;;;;;;5034581;28;20038;-85
2023/11/17 02:51:43;;;;;;;0.60;0.60;;;2.70;99.90;;;;;;5030917;28;20116;-86
2023/11/17 02:54:13;;;;;;;0.60;0.60;;;1.90;99.90;;;;;;5028571;28;20033;-83
2023/11/17 02:56:39;;;;;;;0.73;0.73;;;1.90;99.90;;;;;;5024975;28;20083;-87
2023/11/17 02:59:10;;;;;;;0.57;0.57;;;1.90;99.90;;;;;;5045102;28;20045;-85
2023/11/17 03:01:38;;;;;;;0.50;0.50;;;1.90;99.90;;;;;;5018948;28;20041;-84
2023/11/17 03:04:13;;;;;;;0.75;0.75;;;1.90;99.90;;;;;;5034874;28;20072;-82
2023/11/17 03:06:45;;;;;;;0.68;0.68;;;1.90;99.90;;;;;;5019979;28;20039;-86
2023/11/17 03:09:16;;;;;;;0.60;0.60;;;2.70;99.90;;;;;;5032314;28;20368;-86
2023/11/17 03:11:44;;;;;;;0.70;0.70;;;2.00;99.90;;;;;;5046754;28;20046;-86
2023/11/17 03:14:11;;;;;;;0.52;0.52;;;2.10;99.90;;;;;;5045391;28;20056;-85
2023/11/17 03:16:37;;;;;;;0.60;0.60;;;2.10;99.90;;;;;;5031142;28;20036;-86
2023/11/17 03:19:10;;;;;;;0.70;0.70;;;2.90;99.90;;;;;;5043501;28;20053;-83
2023/11/17 03:21:42;;;;;;;0.60;0.60;;;2.20;99.90;;;;;;5033165;28;20150;-83
2023/11/17 03:24:27;;;;;;;0.50;0.50;;;2.40;99.90;;;;;;5027831;28;20048;-82
2023/11/17 03:26:55;;;;;;;0.60;0.60;;;2.50;99.90;;;;;;5028089;28;20083;-84
2023/11/17 03:29:22;;;;;;;1.15;1.05;;;2.60;99.90;;;;;;5033179;28;20044;-84
2023/11/17 03:31:55;;;;;;;0.60;0.60;;;3.50;99.90;;;;;;5036645;28;20116;-87
2023/11/17 03:34:23;;;;;;;0.70;0.70;;;3.00;99.90;;;;;;5035154;28;20036;-85
2023/11/17 03:37:02;;;;;;;0.55;0.55;;;2.80;99.90;;;;;;5041295;28;20059;-85
2023/11/17 03:39:47;;;;;;;0.50;0.50;;;3.00;99.90;;;;;;5036428;28;20075;-87
2023/11/17 03:42:18;;;;;;;0.70;0.70;;;2.90;99.90;;;;;;5014384;28;20033;-86
2023/11/17 03:44:44;;;;;;;0.80;0.75;;;3.00;99.90;;;;;;5049247;28;20144;-87
2023/11/17 03:47:12;;;;;;;0.70;0.70;;;3.00;99.90;;;;;;5017703;28;20076;-83
2023/11/17 03:49:38;;;;;;;0.70;0.70;;;3.00;99.90;;;;;;5027424;28;20037;-84
2023/11/17 03:52:04;;;;;;;0.50;0.50;;;4.60;99.90;;;;;;5009767;28;20120;-86
2023/11/17 03:54:32;;;;;;;0.60;0.60;;;3.00;99.90;;;;;;5018654;28;20041;-83
2023/11/17 03:57:01;;;;;;;0.50;0.50;;;3.00;99.90;;;;;;5035756;28;20037;-85
2023/11/17 03:59:29;;;;;;;0.60;0.60;;;3.30;99.90;;;;;;5013398;28;20060;-86
2023/11/17 04:01:57;;;;;;;0.60;0.60;;;3.00;99.90;;;;;;5013909;28;20491;-84
2023/11/17 04:04:25;;;;;;;0.60;0.60;;;3.10;99.90;;;;;;5014977;28;20471;-85
2023/11/17 04:06:54;;;;;;;0.50;0.50;;;3.00;99.90;;;;;;5043051;28;20048;-82
2023/11/17 04:09:21;;;;;;;0.60;0.60;;;3.00;99.90;;;;;;5045620;28;20124;-85
2023/11/17 04:11:48;;;;;;;6.03;1.10;;;3.10;99.90;;;;;;5048528;28;20502;-85
2023/11/17 04:14:15;;;;;;;1.33;1.25;;;2.90;99.90;;;;;;5031213;28;20039;-84
2023/11/17 04:16:41;;;;;;;;;;;3.00;99.90;;;;;;5017425;28;20075;-83
2023/11/17 04:19:14;;;;;;;0.77;0.77;;;2.80;99.90;;;;;;5038053;28;20316;-84
2023/11/17 04:21:40;;;;;;;0.63;0.63;;;2.80;99.90;;;;;;5034823;28;20095;-84
2023/11/17 04:24:06;;;;;;;0.70;0.70;;;3.20;99.90;;;;;;5024608;28;20045;-83
2023/11/17 04:26:32;;;;;;;0.70;0.70;;;2.50;99.90;;;;;;5031262;28;20080;-84
2023/11/17 04:28:58;;;;;;;0.82;0.82;;;2.50;99.90;;;;;;5030571;28;20080;-83
2023/11/17 04:31:24;;;;;;;0.85;0.85;;;2.40;99.90;;;;;;5025479;28;20050;-85
2023/11/17 04:33:49;;;;;;;0.95;0.95;;;2.30;99.90;;;;;;5022782;28;20036;-83
2023/11/17 04:36:17;;;;;;;0.63;0.63;;;2.30;99.90;;;;;;5016408;28;20098;-84
2023/11/17 04:38:43;;;;;;;0.75;0.75;;;2.30;99.90;;;;;;5032501;28;20037;-85
2023/11/17 04:41:13;;;;;;;0.88;0.88;;;2.60;99.90;;;;;;5030067;28;20427;-86
2023/11/17 04:43:38;;;;;;;0.70;0.70;;;2.20;99.90;;;;;;5048860;28;20499;-84
2023/11/17 04:46:06;;;;;;;0.90;0.90;;;2.30;99.90;;;;;;5020401;28;20038;-87
2023/11/17 04:48:32;;;;;;;0.60;0.60;;;2.30;99.90;;;;;;5015882;28;20040;-86
2023/11/17 04:50:59;;;;;;;0.70;0.70;;;2.30;99.90;;;;;;5051123;28;20030;-87
2023/11/17 04:53:25;;;;;;;0.75;0.75;;;2.20;99.90;;;;;;5027275;28;20063;-85
2023/11/17 04:55:52;;;;;;;0.60;0.60;;;2.20;99.90;;;;;;5021314;28;20037;-85
2023/11/17 04:58:18;;;;;;;0.93;0.93;;;2.40;99.90;;;;;;5019533;28;20128;-86
2023/11/17 05:00:46;;;;;;;0.60;0.60;;;2.30;99.90;;;;;;5028022;28;20128;-86
2023/11/17 05:03:11;;;;;;;0.80;0.80;;;2.40;99.90;;;;;;5045892;28;20072;-84
2023/11/17 05:05:37;;;;;;;0.70;0.70;;;2.50;99.90;;;;;;5016012;28;20072;-86
2023/11/17 05:08:03;;;;;;;3.03;1.95;;;2.60;99.90;;;;;;5034589;28;20033;-87
2023/11/17 05:10:29;;;;;;;0.65;0.65;;;2.80;99.90;;;;;;5013891;28;20087;-84
2023/11/17 05:12:55;;;;;;;0.63;0.63;;;2.80;99.90;;;;;;5014615;28;20128;-84
2023/11/17 05:15:22;;;;;;;0.60;0.60;;;3.60;99.90;;;;;;5031389;28;20045;-86
2023/11/17 05:17:48;;;;;;;0.50;0.50;;;2.80;99.90;;;;;;5026379;28;20048;-82
2023/11/17 05:20:19;;;;;;;0.90;0.90;;;2.80;99.90;;;;;;5031973;28;20450;-83
2023/11/17 05:22:46;;;;;;;0.60;0.60;;;2.80;99.90;;;;;;5023130;28;20041;-81
2023/11/17 05:25:14;;;;;;;0.60;0.60;;;2.80;99.90;;;;;;5050691;28;20048;-80
2023/11/17 05:27:41;;;;;;;2.72;1.15;;;2.80;99.90;;;;;;5029120;28;20479;-84
2023/11/17 05:30:08;;;;;;;0.60;0.60;;;2.80;99.90;;;;;;5014030;28;20483;-81
2023/11/17 05:32:34;;;;;;;0.60;0.60;;;2.80;99.90;;;;;;5042289;28;20045;-81
2023/11/17 05:35:01;;;;;;;0.60;0.60;;;3.20;99.90;;;;;;5036251;28;20479;-82
2023/11/17 05:37:27;;;;;;;1.42;1.00;;;2.80;99.90;;;;;;5029732;28;20462;-81
2023/11/17 05:39:53;;;;;;;;;;;3.00;99.90;;;;;;5028212;28;20048;-81
2023/11/17 05:42:19;;;;;;;0.60;0.60;;;2.80;99.90;;;;;;5021737;28;20279;-83
2023/11/17 05:44:44;;;;;;;0.80;0.80;;;2.80;99.90;;;;;;5022278;28;20049;-82
2023/11/17 05:47:10;;;;;;;0.90;0.90;;;2.90;99.90;;;;;;5022662;28;20037;-83
2023/11/17 05:49:42;;;;;;;0.73;0.73;;;3.40;99.90;;;;;;5031730;28;20041;-82
2023/11/17 05:52:09;;;;;;;0.60;0.60;;;3.40;99.90;;;;;;5043456;28;20491;-81
2023/11/17 05:54:45;;;;;;;0.70;0.70;;;2.90;99.90;;;;;;5041826;28;20076;-83
2023/11/17 05:57:16;;;;;;;0.95;0.95;;;2.90;99.90;;;;;;5017431;28;20182;-82
2023/11/17 05:59:44;;;;;;;0.60;0.60;;;2.90;99.90;;;;;;5043469;28;20398;-82
2023/11/17 06:02:11;;;;;;;1.45;1.35;;;2.90;99.90;;;;;;5016284;28;20044;-84
2023/11/17 06:04:37;;;;;;;0.95;0.95;;;3.00;99.90;;;;;;5051841;28;20431;-82
2023/11/17 06:07:03;;;;;;;0.57;0.57;;;3.10;99.90;;;;;;5056242;28;20056;-82
2023/11/17 06:09:29;;;;;;;;;;;3.10;99.90;;;;;;5053652;28;20073;-82
2023/11/17 06:11:56;;;;;;;1.00;1.00;;;3.20;99.90;;;;;;5038624;28;19967;-81
2023/11/17 06:14:31;;;;;;;1.02;1.02;;;4.20;99.90;;;;;;5044475;28;20546;-80
2023/11/17 06:17:15;;;;;;;0.80;0.80;;;3.10;99.90;;;;;;5035577;28;20079;-83
2023/11/17 06:19:42;;;;;;;0.60;0.60;;;3.00;99.90;;;;;;5036264;28;20446;-82
2023/11/17 06:22:07;;;;;;;0.70;0.70;;;3.80;99.90;;;;;;5018159;28;20045;-83
2023/11/17 06:24:34;;;;;;;0.60;0.60;;;3.10;99.90;;;;;;5029929;28;20532;-85
2023/11/17 06:26:59;;;;;;;;;;;3.00;99.90;;;;;;5026979;28;20115;-86
2023/11/17 06:29:25;;;;;;;0.50;0.50;;;3.00;99.90;;;;;;5045965;28;20462;-84
2023/11/17 06:31:54;;;;;;;1.85;1.75;;;3.10;99.90;;;;;;5029730;28;20498;-86
2023/11/17 06:34:20;;;;;;;0.70;0.70;;;3.60;99.90;;;;;;5015622;28;20030;-84
2023/11/17 06:36:46;;;;;;;0.70;0.70;;;3.10;99.90;;;;;;5018710;28;20041;-82
2023/11/17 06:39:16;;;;;;;0.70;0.70;;;3.20;99.90;;;;;;5036551;28;20413;-81
2023/11/17 06:41:50;;;;;;;0.73;0.73;;;3.00;99.90;;;;;;5047485;28;20489;-84
2023/11/17 06:44:20;;;;;;;0.60;0.60;;;3.00;99.90;;;;;;5020938;28;20056;-85
2023/11/17 06:46:47;;;;;;;0.50;0.50;;;2.90;99.90;;;;;;5049929;28;20069;-85
2023/11/17 06:49:14;;;;;;;0.60;0.60;;;4.00;99.90;;;;;;5046896;28;20041;-84
2023/11/17 06:51:49;;;;;;;1.10;1.10;;;3.70;99.90;;;;;;5038476;28;20039;-83
2023/11/17 06:54:15;;;;;;;0.50;0.50;;;2.90;99.90;;;;;;5058368;28;20136;-83
2023/11/17 06:56:46;;;;;;;0.60;0.60;;;2.90;99.90;;;;;;5041729;28;20040;-83
2023/11/17 06:59:17;;;;;;;0.95;0.95;;;2.80;99.90;;;;;;5046092;28;20394;-84
2023/11/17 07:01:44;;;;;;;0.50;0.50;;;2.80;99.90;;;;;;5044520;28;20441;-85
2023/11/17 07:04:12;;;;;;;0.60;0.60;;;2.80;99.90;;;;;;5052179;28;20071;-84
2023/11/17 07:06:39;;;;;;;0.60;0.60;;;2.70;99.90;;;;;;5048472;28;20055;-85
2023/11/17 07:09:23;;;;;;;0.63;0.63;;;2.60;99.90;;;;;;5052039;28;20049;-84
2023/11/17 07:11:54;;;;;;;0.60;0.60;;;2.50;99.90;;;;;;4988303;28;1117278;-85
2023/11/17 07:14:21;;;;;;;0.90;0.90;;;2.40;99.90;;;;;;5052485;28;20478;-83
2023/11/17 07:16:50;;;;;;;0.60;0.60;;;2.30;99.90;;;;;;5031902;28;20037;-84
2023/11/17 07:19:16;;;;;;;0.65;0.65;;;3.30;99.90;;;;;;5045266;28;20045;-83
2023/11/17 07:21:43;;;;;;;0.70;0.70;;;2.20;99.90;;;;;;5011591;28;20105;-84
2023/11/17 07:24:11;;;;;;;0.60;0.60;;;2.10;99.90;;;;;;5046660;28;20041;-82
2023/11/17 07:26:37;;;;;;;0.68;0.68;;;2.20;99.90;;;;;;5037943;28;20044;-80
2023/11/17 07:29:04;;;;;;;0.68;0.68;;;2.50;99.90;;;;;;5039060;28;20050;-84
2023/11/17 07:31:39;;;;;;;0.60;0.60;;;2.20;99.90;;;;;;5011461;28;20145;-83
2023/11/17 07:34:08;;;;;;;0.60;0.60;;;2.30;99.90;;;;;;5026088;28;20126;-82
2023/11/17 07:36:37;;;;;;;0.70;0.70;;;2.30;99.90;;;;;;5042288;28;20051;-80
2023/11/17 07:39:04;;;;;;;0.55;0.55;;;2.40;99.90;;;;;;5037330;28;20080;-86
2023/11/17 07:41:30;;;;;;;1.80;1.70;;;2.50;99.90;;;;;;5030219;28;20036;-84
2023/11/17 07:43:58;;;;;;;0.88;0.88;;;2.60;99.90;;;;;;5044321;28;20049;-81
2023/11/17 07:46:27;;;;;;;1.20;1.10;;;2.90;99.90;;;;;;5023975;28;20041;-80
2023/11/17 07:48:56;;;;;;;1.48;1.38;;;2.70;99.90;;;;;;5018275;28;20042;-84
2023/11/17 07:51:22;;;;;;;3.95;2.08;;;2.80;99.90;;;;;;5031336;28;20064;-87
2023/11/17 07:53:48;;;;;;;0.77;0.77;;;2.80;99.90;;;;;;5027018;28;20096;-84
2023/11/17 07:56:17;;;;;;;4.60;2.80;;;2.90;99.90;;;;;;5031053;28;20056;-84
2023/11/17 07:58:43;;;;;;;1.77;1.30;;;2.90;99.90;;;;;;5048799;28;20052;-83
2023/11/17 08:01:09;;;;;;;0.60;0.60;;;2.90;99.90;;;;;;5019416;28;20056;-86
2023/11/17 08:03:38;;;;;;;0.50;0.50;;;3.10;99.90;;;;;;5022333;28;20052;-84
2023/11/17 08:06:05;;;;;;;1.13;1.13;;;3.10;99.90;;;;;;5018732;28;20045;-82
2023/11/17 08:08:31;;;;;;;0.57;0.57;;;3.20;99.90;;;;;;5034098;28;20487;-83
2023/11/17 08:10:59;;;;;;;1.17;1.17;;;3.30;99.90;;;;;;5051331;28;20048;-87
2023/11/17 08:13:25;;;;;;;0.60;0.60;;;3.30;99.90;;;;;;5050574;28;20072;-88
2023/11/17 08:15:51;;;;;;;2.55;1.05;;;3.40;99.90;;;;;;5019417;28;20045;-90
2023/11/17 08:18:24;;;;;;;1.48;1.48;;;3.40;99.90;;;;;;5026602;28;20037;-89
2023/11/17 08:20:50;;;;;;;0.60;0.60;;;3.30;99.90;;;;;;5022720;28;20051;-87
2023/11/17 08:23:16;;;;;;;2.30;2.20;;;3.30;99.90;;;;;;5023175;28;20095;-87
2023/11/17 08:25:43;;;;;;;0.70;0.70;;;3.30;99.90;;;;;;5020782;28;20037;-85
2023/11/17 08:28:09;;;;;;;1.48;1.48;;;3.50;99.90;;;;;;5019323;28;20491;-87
2023/11/17 08:30:37;;;;;;;0.60;0.60;;;3.60;99.90;;;;;;5019587;28;20088;-89
2023/11/17 08:33:04;;;;;;;0.55;0.55;;;3.50;99.90;;;;;;5022561;28;20113;-89
2023/11/17 08:35:31;;;;;;;0.60;0.60;;;3.60;99.90;;;;;;5029224;28;20514;-88
2023/11/17 08:37:56;;;;;;;0.80;0.80;;;3.60;99.90;;;;;;5046069;28;20055;-86
2023/11/17 08:40:23;;;;;;;0.70;0.70;;;3.60;99.90;;;;;;5017366;28;20061;-88
2023/11/17 08:42:49;;;;;;;0.80;0.80;;;4.30;99.90;;;;;;5033804;28;20044;-88
2023/11/17 08:45:15;;;;;;;0.68;0.68;;;3.80;99.90;;;;;;5000595;28;20041;-88
2023/11/17 08:47:44;;;;;;;0.70;0.70;;;3.80;99.90;;;;;;5021701;28;20036;-87
2023/11/17 08:50:12;;;;;;;0.50;0.50;;;3.90;99.90;;;;;;5024666;28;20511;-90
2023/11/17 08:52:42;;;;;;;0.50;0.50;;;4.00;99.90;;;;;;5016962;28;20129;-88
2023/11/17 08:55:09;;;;;;;0.60;0.60;;;4.00;99.90;;;;;;5035498;28;20047;-88
2023/11/17 08:57:36;;;;;;;0.60;0.60;;;4.10;99.90;;;;;;5056327;28;20063;-87
2023/11/17 09:00:11;;;;;;;0.57;0.57;;;4.10;99.90;;;;;;5053063;28;20109;-87
2023/11/17 09:02:45;;;;;;;0.60;0.60;;;4.10;99.90;;;;;;5052203;28;20048;-89
2023/11/17 09:05:12;;;;;;;1.38;1.27;;;5.30;99.90;;;;;;5032694;28;20053;-86
2023/11/17 09:07:44;;;;;;;0.52;0.52;;;4.00;99.90;;;;;;5040581;28;20109;-87
2023/11/17 09:10:11;;;;;;;0.55;0.55;;;4.30;99.90;;;;;;5033590;28;20403;-86
2023/11/17 09:12:41;;;;;;;0.85;0.85;;;;;;;;;;5031081;28;20054;-86
2023/11/17 09:15:09;;;;;;;0.90;0.90;;;4.40;99.90;;;;;;5018757;28;20551;-87
2023/11/17 09:17:36;;;;;;;0.82;0.82;;;4.50;99.90;;;;;;5023889;28;20067;-87
2023/11/17 09:20:09;;;;;;;0.70;0.70;;;4.70;99.90;;;;;;5039408;28;20140;-88
2023/11/17 09:22:35;;;;;;;1.75;1.73;;;4.80;99.90;;;;;;5007209;28;20053;-87
2023/11/17 09:25:14;;;;;;;0.60;0.60;;;4.90;99.90;;;;;;5052537;28;20045;-87
2023/11/17 09:27:48;;;;;;;1.30;1.20;;;5.10;99.90;;;;;;5019771;28;20075;-88
2023/11/17 09:30:15;;;;;;;0.65;0.65;;;5.20;99.90;;;;;;5046684;28;20048;-84
2023/11/17 09:32:55;;;;;;;0.95;0.95;;;5.30;99.90;;;;;;5030737;28;20048;-87
2023/11/17 09:35:25;;;;;;;0.90;0.90;;;5.50;99.90;;;;;;5031865;28;20056;-87
2023/11/17 09:37:53;;;;;;;0.77;0.77;;;5.60;99.90;;;;;;5046468;28;20110;-89
2023/11/17 09:40:23;;;;;;;0.63;0.63;;;5.70;99.90;;;;;;5049969;28;20044;-87
2023/11/17 09:42:50;;;;;;;0.60;0.60;;;;;;;;;;5049816;28;20045;-86
2023/11/17 09:45:19;;;;;;;0.93;0.82;;;6.00;99.90;;;;;;5042338;28;20052;-85
2023/11/17 09:47:48;;;;;;;1.27;1.17;;;6.10;99.90;;;;;;5023146;28;20041;-86
2023/11/17 09:50:18;;;;;;;0.40;0.40;;;6.10;99.90;;;;;;5041054;28;20075;-84
2023/11/17 09:52:47;;;;;;;0.90;0.90;;;6.10;99.90;;;;;;5048603;28;20048;-84
2023/11/17 09:55:14;;;;;;;1.13;1.02;;;6.50;99.90;;;;;;5050938;28;20036;-84
2023/11/17 09:57:45;;;;;;;0.57;0.57;;;6.10;99.90;;;;;;5020256;28;20044;-84
2023/11/17 10:00:18;;;;;;;1.40;1.35;;;6.30;99.90;;;;;;5055477;28;20044;-85
2023/11/17 10:02:54;;;;;;;1.15;1.15;;;6.10;99.90;;;;;;5028863;28;20055;-85
2023/11/17 10:05:25;;;;;;;1.45;1.10;;;6.10;99.90;;;;;;5028890;28;20465;-85
2023/11/17 10:08:02;;;;;;;0.50;0.50;;;6.30;99.90;;;;;;5018311;28;20072;-87
2023/11/17 10:10:30;;;;;;;;;;;6.20;99.90;;;;;;5025566;28;20430;-86
2023/11/17 10:12:57;;;;;;;0.52;0.52;;;6.20;99.90;;;;;;5031293;28;20442;-84
2023/11/17 10:15:25;;;;;;;0.60;0.60;;;6.10;99.90;;;;;;5027115;28;20045;-86
2023/11/17 10:18:01;;;;;;;0.50;0.50;;;6.10;99.90;;;;;;5032579;28;20124;-87
2023/11/17 10:20:28;;;;;;;0.50;0.50;;;6.10;99.90;;;;;;5024422;28;20128;-87
2023/11/17 10:22:55;;;;;;;0.55;0.55;;;6.00;99.90;;;;;;5028637;28;20065;-85
2023/11/17 10:25:24;;;;;;;1.48;1.38;;;5.90;99.90;;;;;;5031684;28;20039;-85
2023/11/17 10:27:57;;;;;;;0.77;0.77;;;5.90;99.90;;;;;;5038302;28;20447;-81
2023/11/17 10:30:30;;;;;;;0.80;0.80;;;6.00;99.90;;;;;;5020888;28;20041;-85
2023/11/17 10:33:02;;;;;;;0.70;0.70;;;6.10;99.90;;;;;;5050451;28;20038;-85
2023/11/17 10:35:31;;;;;;;0.75;0.75;;;6.40;99.90;;;;;;5028297;28;20120;-85
2023/11/17 10:37:58;;;;;;;0.63;0.63;;;6.40;99.90;;;;;;5048888;28;20044;-84
2023/11/17 10:40:31;;;;;;;0.70;0.70;;;6.60;99.90;;;;;;5037954;28;20033;-82
2023/11/17 10:43:08;;;;;;;0.57;0.57;;;6.80;99.90;;;;;;5043637;28;20052;-84
2023/11/17 10:45:37;;;;;;;0.98;0.98;;;7.10;99.90;;;;;;5044207;28;20029;-85
2023/11/17 10:48:07;;;;;;;0.60;0.60;;;7.60;99.90;;;;;;5051491;28;20041;-84
2023/11/17 10:50:37;;;;;;;0.50;0.50;;;7.60;99.90;;;;;;5030944;28;20051;-84
2023/11/17 10:53:18;;;;;;;0.68;0.68;;;7.80;99.90;;;;;;5036260;28;20040;-83
2023/11/17 10:55:45;;;;;;;0.60;0.60;;;8.10;99.90;;;;;;5040528;28;20045;-84
2023/11/17 10:58:15;;;;;;;0.40;0.40;;;8.20;99.90;;;;;;5031674;28;20041;-83
2023/11/17 11:00:51;;;;;;;0.43;0.43;;;8.40;99.90;;;;;;5002701;28;20041;-83
2023/11/17 11:03:18;;;;;;;0.47;0.47;;;8.40;99.90;;;;;;5051657;28;20037;-83
2023/11/17 11:05:47;;;;;;;0.40;0.40;;;8.40;99.90;;;;;;5037969;28;20115;-83
2023/11/17 11:08:22;;;;;;;0.50;0.50;;;8.30;99.90;;;;;;5049888;28;20056;-84
2023/11/17 11:10:57;;;;;;;0.50;0.50;;;8.30;99.90;;;;;;5039002;28;20102;-83
2023/11/17 11:13:29;;;;;;;0.40;0.40;;;8.30;99.90;;;;;;5045997;28;20048;-83
2023/11/17 11:16:05;;;;;;;0.45;0.45;;;8.40;99.90;;;;;;5021984;28;20036;-81
2023/11/17 11:18:35;;;;;;;0.47;0.47;;;8.40;99.90;;;;;;5029865;28;20091;-85
2023/11/17 11:21:06;;;;;;;0.55;0.55;;;8.40;99.90;;;;;;5035604;28;20057;-85
2023/11/17 11:23:33;;;;;;;0.50;0.50;;;8.40;99.90;;;;;;5037570;28;20040;-84
2023/11/17 11:26:05;;;;;;;2.20;1.20;;;8.40;99.90;;;;;;5034478;28;20072;-86
2023/11/17 11:28:34;;;;;;;0.40;0.40;;;8.40;99.90;;;;;;5055278;28;20045;-88
2023/11/17 11:31:05;;;;;;;0.98;0.98;;;8.40;99.90;;;;;;5057440;28;20037;-89
2023/11/17 11:33:32;;;;;;;0.77;0.77;;;8.40;99.90;;;;;;5013911;28;20340;-89
2023/11/17 11:36:02;;;;;;;1.20;0.50;;;8.50;99.90;;;;;;5059949;28;20050;-88
2023/11/17 11:38:28;;;;;;;0.73;0.73;;;7.70;99.90;;;;;;5023368;28;20490;-89
2023/11/17 11:40:55;;;;;;;;;;;8.50;99.90;;;;;;5035251;28;20044;-91
2023/11/17 11:43:45;;;;;;;0.63;0.63;;;8.50;99.90;;;;;;5046944;28;20004;-89
2023/11/17 11:46:19;;;;;;;0.55;0.55;;;8.40;99.90;;;;;;5016599;28;20447;-90
2023/11/17 11:49:07;;;;;;;2.40;1.40;;;8.30;99.90;;;;;;5031902;28;20038;-88
2023/11/17 11:51:53;;;;;;;0.40;0.40;;;8.40;99.90;;;;;;5047189;28;20043;-90
2023/11/17 11:54:19;;;;;;;0.73;0.63;;;8.30;99.90;;;;;;5055961;28;20040;-89
2023/11/17 11:56:48;;;;;;;1.75;1.65;;;8.40;99.90;;;;;;5023017;28;20038;-85
2023/11/17 11:59:15;;;;;;;3.38;0.90;;;8.50;99.90;;;;;;5029510;28;20037;-90
2023/11/17 12:01:56;;;;;;;1.38;1.35;;;8.40;99.90;;;;;;5015126;28;20041;-89
2023/11/17 12:05:03;;;;;;;0.70;0.70;;;8.40;99.90;;;;;;5015664;28;20815;-89
2023/11/17 12:07:47;;;;;;;0.85;0.85;;;8.40;99.90;;;;;;5031190;28;20097;-88
2023/11/17 12:10:37;;;;;;;1.15;0.77;;;9.40;99.90;;;;;;5033534;28;20049;-90
2023/11/17 12:13:58;;;;;;;0.77;0.77;;;8.60;99.90;;;;;;5018990;28;20132;-90
2023/11/17 12:16:37;;;;;;;0.40;0.40;;;8.50;99.90;;;;;;5054585;28;20048;-89
2023/11/17 12:19:05;;;;;;;0.40;0.40;;;8.70;99.90;;;;;;5041688;28;20067;-89
2023/11/17 12:21:38;;;;;;;0.82;0.82;;;8.60;99.90;;;;;;5044810;28;20125;-87
2023/11/17 12:24:23;;;;;;;0.55;0.40;;;8.70;99.90;;;;;;5050918;28;20055;-88
2023/11/17 12:26:59;;;;;;;0.90;0.90;;;8.70;99.90;;;;;;5038751;28;20037;-90
2023/11/17 12:29:45;;;;;;;0.60;0.60;;;8.30;99.90;;;;;;5028387;28;20052;-87
2023/11/17 12:32:18;;;;;;;0.57;0.57;;;9.20;99.90;;;;;;5035715;28;20044;-89
2023/11/17 12:34:56;;;;;;;0.60;0.50;;;8.90;99.90;;;;;;5035925;28;20048;-88
2023/11/17 12:37:43;;;;;;;0.38;0.38;;;8.80;99.90;;;;;;5036399;28;20050;-89
2023/11/17 12:43:31;;;;;;;0.50;0.50;;;8.90;99.90;;;;;;5056841;28;20095;-87
2023/11/17 12:46:14;;;;;;;0.30;0.30;;;8.90;99.90;;;;;;5060284;28;20064;-85
2023/11/17 12:48:58;;;;;;;0.60;0.40;;;9.40;99.90;;;;;;5044938;28;20049;-91
2023/11/17 12:51:26;;;;;;;0.30;0.30;;;9.10;99.90;;;;;;5048655;28;20043;-86
2023/11/17 12:54:11;;;;;;;0.73;0.73;;;9.10;99.90;;;;;;5020920;28;20036;-88
2023/11/17 12:56:36;;;;;;;0.88;0.88;;;9.00;99.90;;;;;;5054285;28;20178;-90
2023/11/17 12:59:06;;;;;;;0.30;0.30;;;9.10;99.90;;;;;;5036718;28;20045;-88
2023/11/17 13:01:53;;;;;;;1.08;1.08;;;9.00;99.90;;;;;;5030546;28;20048;-89
2023/11/17 13:04:38;;;;;;;0.40;0.40;;;9.20;99.90;;;;;;5037255;28;20053;-88
2023/11/17 13:07:13;;;;;;;0.60;0.60;;;9.10;99.90;;;;;;5052967;28;20060;-91
2023/11/17 13:09:52;;;;;;;0.40;0.40;;;9.10;99.90;;;;;;5031025;28;20483;-90
2023/11/17 13:12:20;;;;;;;0.50;0.50;;;10.30;99.90;;;;;;5029930;28;20049;-89
2023/11/17 13:14:46;;;;;;;0.32;0.32;;;9.10;99.90;;;;;;5018092;28;20075;-89
2023/11/17 13:17:20;;;;;;;0.70;0.70;;;9.20;99.90;;;;;;5037168;28;20052;-89
2023/11/17 13:19:52;;;;;;;1.25;1.15;;;9.30;99.90;;;;;;5033834;28;20057;-91